Time;durP1;ratioP1;P1;durP2;ratioP2;P2;SDS_P1;SDS_P2;PMS_P1;PMS_P2;Temp;Humidity;BMP_temperature;BMP_pressure;BME280_temperature;BME280_humidity;BME280_pressure;Samples;Min_cycle;Max_cycle;Signal;HPM_P1;HPM_P2
2022/06/08 00:00:46;;;;;;;7.47;4.65;;;;;;;;;;5070479;28;20051;-70
2022/06/08 00:03:15;;;;;;;9.10;4.90;;;;;;;;;;5059044;28;20025;-70
2022/06/08 00:05:41;;;;;;;6.75;4.88;;;;;;;;;;5067028;28;20040;-70
2022/06/08 00:08:06;;;;;;;10.20;4.80;;;;;;;;;;5072103;28;20441;-70
2022/06/08 00:10:31;;;;;;;7.50;4.45;;;;;;;;;;5069353;28;20013;-70
2022/06/08 00:12:56;;;;;;;8.37;4.47;;;;;;;;;;5068653;28;20522;-70
2022/06/08 00:15:21;;;;;;;9.55;4.20;;;;;;;;;;5069838;28;20266;-70
2022/06/08 00:17:47;;;;;;;8.17;3.63;;;;;;;;;;5069495;28;20033;-70
2022/06/08 00:20:13;;;;;;;4.97;3.87;;;;;;;;;;5072671;28;20267;-71
2022/06/08 00:22:38;;;;;;;5.90;3.85;;;;;;;;;;5070860;28;20348;-70
2022/06/08 00:25:04;;;;;;;6.60;3.78;;;;;;;;;;5068651;28;20052;-70
2022/06/08 00:27:29;;;;;;;6.75;3.35;;;;;;;;;;5064885;28;20029;-70
2022/06/08 00:29:55;;;;;;;6.55;3.53;;;;;;;;;;5071438;28;20379;-70
2022/06/08 00:32:20;;;;;;;8.40;3.80;;;;;;;;;;5052713;28;20017;-70
2022/06/08 00:34:45;;;;;;;6.20;4.10;;;;;;;;;;5067594;28;20020;-70
2022/06/08 00:37:10;;;;;;;5.60;2.97;;;;;;;;;;5068173;28;20111;-70
2022/06/08 00:39:36;;;;;;;6.28;3.45;;;;;;;;;;5066095;28;20480;-70
2022/06/08 00:42:03;;;;;;;3.65;2.90;;;;;;;;;;5068126;28;20027;-70
2022/06/08 00:44:34;;;;;;;3.83;3.20;;;;;;;;;;5137963;22;20056;-65
2022/06/08 00:47:01;;;;;;;6.15;3.40;;;;;;;;;;5077037;28;20103;-66
2022/06/08 00:49:26;;;;;;;5.80;2.90;;;;;;;;;;5079294;28;20025;-65
2022/06/08 00:51:51;;;;;;;4.13;3.10;;;;;;;;;;5090058;28;20084;-65
2022/06/08 00:54:21;;;;;;;6.78;3.03;;;;;;;;;;5083089;28;20638;-66
2022/06/08 00:56:50;;;;;;;6.53;2.93;;;;;;;;;;5064666;28;20082;-66
2022/06/08 00:59:15;;;;;;;5.97;3.15;;;;;;;;;;5059595;28;20038;-65
2022/06/08 01:01:40;;;;;;;4.90;2.88;;;;;;;;;;5063120;28;20545;-65
2022/06/08 01:04:10;;;;;;;9.82;3.25;;;;;;;;;;5059356;28;20446;-65
2022/06/08 01:06:35;;;;;;;7.30;3.28;;;;;;;;;;5071562;28;20048;-66
2022/06/08 01:09:00;;;;;;;5.85;2.28;;;;;;;;;;5061658;28;20048;-65
2022/06/08 01:11:28;;;;;;;5.63;3.17;;;;;;;;;;5070007;28;20050;-66
2022/06/08 01:13:55;;;;;;;5.65;3.15;;;;;;;;;;5058735;28;20060;-65
2022/06/08 01:16:20;;;;;;;5.25;3.42;;;;;;;;;;5068133;28;20043;-65
2022/06/08 01:18:45;;;;;;;10.20;3.37;;;;;;;;;;5068038;28;20033;-65
2022/06/08 01:21:19;;;;;;;8.18;3.22;;;;;;;;;;5062746;28;20286;-65
2022/06/08 01:23:45;;;;;;;7.63;3.55;;;;;;;;;;5069891;28;20721;-65
2022/06/08 01:26:17;;;;;;;4.50;2.88;;;;;;;;;;5068183;28;20029;-65
2022/06/08 01:28:48;;;;;;;4.72;2.92;;;;;;;;;;5056906;28;20456;-65
2022/06/08 01:31:19;;;;;;;6.72;2.75;;;;;;;;;;5062145;28;20017;-65
2022/06/08 01:33:50;;;;;;;4.25;2.70;;;;;;;;;;5063239;28;20024;-65
2022/06/08 01:36:33;;;;;;;9.70;3.28;;;;;;;;;;5068955;28;20040;-65
2022/06/08 01:39:03;;;;;;;7.05;3.30;;;;;;;;;;5065534;28;20021;-65
2022/06/08 01:41:28;;;;;;;;;;;;;;;;;;5066400;28;20032;-65
2022/06/08 01:44:12;;;;;;;6.03;2.72;;;;;;;;;;5059773;28;19912;-65
2022/06/08 01:47:04;;;;;;;6.22;2.95;;;;;;;;;;5059565;28;20052;-66
2022/06/08 01:49:41;;;;;;;9.82;2.60;;;;;;;;;;5061606;28;20427;-65
2022/06/08 01:52:24;;;;;;;5.13;2.30;;;;;;;;;;5069534;28;20029;-66
2022/06/08 01:55:09;;;;;;;8.05;2.58;;;;;;;;;;5058244;28;20017;-65
2022/06/08 01:57:37;;;;;;;5.55;3.05;;;;;;;;;;5054660;28;20697;-65
2022/06/08 02:00:06;;;;;;;4.50;2.75;;;;;;;;;;5067451;28;20032;-65
2022/06/08 02:02:37;;;;;;;3.47;2.38;;;;;;;;;;5065435;28;20108;-65
2022/06/08 02:05:23;;;;;;;8.77;3.10;;;;;;;;;;5065448;28;20032;-65
2022/06/08 02:07:55;;;;;;;7.57;2.47;;;;;;;;;;5056624;28;20789;-65
2022/06/08 02:10:20;;;;;;;6.35;2.47;;;;;;;;;;5058944;28;20009;-65
2022/06/08 02:12:49;;;;;;;4.07;3.08;;;;;;;;;;5061516;28;20047;-65
2022/06/08 02:15:22;;;;;;;4.20;2.90;;;;;;;;;;5068292;28;20016;-65
2022/06/08 02:17:50;;;;;;;3.45;2.50;;;;;;;;;;5068251;28;20096;-65
2022/06/08 02:20:22;;;;;;;8.85;3.20;;;;;;;;;;5068495;28;20475;-65
2022/06/08 02:22:50;;;;;;;6.13;3.65;;;;;;;;;;5062128;28;20017;-65
2022/06/08 02:25:21;;;;;;;8.50;3.35;;;;;;;;;;5057313;28;20028;-66
2022/06/08 02:27:57;;;;;;;6.43;2.88;;;;;;;;;;5066117;28;20017;-65
2022/06/08 02:30:24;;;;;;;7.13;2.92;;;;;;;;;;5066358;28;20082;-66
2022/06/08 02:35:42;;;;;;;5.53;3.33;;;;;;;;;;5067189;28;20090;-65
2022/06/08 02:38:09;;;;;;;9.15;3.40;;;;;;;;;;5065718;28;20016;-65
2022/06/08 02:40:36;;;;;;;6.38;3.50;;;;;;;;;;5055162;28;20025;-66
2022/06/08 02:43:04;;;;;;;4.65;2.88;;;;;;;;;;5064208;28;20033;-66
2022/06/08 02:45:32;;;;;;;6.90;3.35;;;;;;;;;;5068122;28;20179;-66
2022/06/08 02:48:00;;;;;;;5.25;3.20;;;;;;;;;;5062490;28;20021;-65
2022/06/08 02:50:26;;;;;;;6.65;2.83;;;;;;;;;;5064208;28;20024;-63
2022/06/08 02:52:52;;;;;;;6.60;3.53;;;;;;;;;;5055438;28;20350;-65
2022/06/08 02:55:20;;;;;;;7.47;3.10;;;;;;;;;;5061844;28;20110;-65
2022/06/08 02:57:49;;;;;;;8.13;3.63;;;;;;;;;;5058839;28;20431;-65
2022/06/08 03:00:19;;;;;;;4.78;3.35;;;;;;;;;;5069749;28;20103;-65
2022/06/08 03:02:47;;;;;;;8.93;3.75;;;;;;;;;;5063473;28;20035;-68
2022/06/08 03:05:17;;;;;;;10.23;3.38;;;;;;;;;;5064533;28;20440;-65
2022/06/08 03:07:54;;;;;;;10.00;3.40;;;;;;;;;;5053681;28;20095;-65
2022/06/08 03:10:20;;;;;;;5.22;3.05;;;;;;;;;;5064160;28;20070;-65
2022/06/08 03:12:48;;;;;;;5.57;3.75;;;;;;;;;;5063669;28;20349;-66
2022/06/08 03:15:15;;;;;;;7.00;3.63;;;;;;;;;;5067054;28;20009;-66
2022/06/08 03:17:41;;;;;;;5.55;3.17;;;;;;;;;;5063916;28;20484;-65
2022/06/08 03:20:08;;;;;;;8.15;3.13;;;;;;;;;;5063883;28;20032;-65
2022/06/08 03:22:34;;;;;;;5.47;3.55;;;;;;;;;;5059755;28;20024;-65
2022/06/08 03:24:59;;;;;;;8.85;3.50;;;;;;;;;;5064500;28;20016;-66
2022/06/08 03:27:24;;;;;;;6.32;3.58;;;;;;;;;;5058176;28;20545;-64
2022/06/08 03:29:49;;;;;;;5.82;2.90;;;;;;;;;;5067794;28;20024;-65
2022/06/08 03:32:15;;;;;;;5.45;2.85;;;;;;;;;;5066169;28;20032;-66
2022/06/08 03:34:40;;;;;;;4.07;2.78;;;;;;;;;;5065422;28;20683;-66
2022/06/08 03:37:06;;;;;;;7.00;3.40;;;;;;;;;;5058792;28;20074;-65
2022/06/08 03:39:31;;;;;;;4.75;2.80;;;;;;;;;;5057148;28;20031;-65
2022/06/08 03:41:56;;;;;;;3.78;2.90;;;;;;;;;;5056933;28;20024;-65
2022/06/08 03:44:21;;;;;;;9.97;3.07;;;;;;;;;;5057302;28;20107;-65
2022/06/08 03:46:49;;;;;;;8.10;3.30;;;;;;;;;;5061943;28;20292;-65
2022/06/08 03:49:15;;;;;;;9.57;3.17;;;;;;;;;;5063423;28;20031;-67
2022/06/08 03:51:42;;;;;;;4.68;2.47;;;;;;;;;;5064807;28;20017;-65
2022/06/08 03:54:21;;;;;;;5.90;2.40;;;;;;;;;;5065231;28;20024;-65
2022/06/08 03:56:48;;;;;;;4.72;2.33;;;;;;;;;;5067979;28;20101;-65
2022/06/08 03:59:13;;;;;;;5.80;2.80;;;;;;;;;;5064410;28;20020;-65
2022/06/08 04:01:38;;;;;;;6.78;2.83;;;;;;;;;;5058113;28;20473;-65
2022/06/08 04:04:04;;;;;;;5.43;2.60;;;;;;;;;;5070782;28;20105;-65
2022/06/08 04:06:29;;;;;;;5.90;2.78;;;;;;;;;;5055540;28;20458;-65
2022/06/08 04:08:55;;;;;;;6.85;2.40;;;;;;;;;;5068997;28;20461;-65
2022/06/08 04:11:20;;;;;;;2.72;2.20;;;;;;;;;;5056685;28;20020;-65
2022/06/08 04:13:45;;;;;;;3.95;2.20;;;;;;;;;;5063088;28;20104;-66
2022/06/08 04:16:11;;;;;;;7.07;2.50;;;;;;;;;;5060854;28;20091;-65
2022/06/08 04:18:36;;;;;;;6.57;2.07;;;;;;;;;;5060782;28;20278;-65
2022/06/08 04:21:03;;;;;;;7.57;2.20;;;;;;;;;;5071425;28;20274;-65
2022/06/08 04:23:28;;;;;;;5.72;2.17;;;;;;;;;;5064280;28;20357;-64
2022/06/08 04:25:54;;;;;;;3.58;2.10;;;;;;;;;;5069121;28;20108;-64
2022/06/08 04:28:20;;;;;;;2.92;1.95;;;;;;;;;;5059811;28;20013;-65
2022/06/08 04:30:45;;;;;;;3.80;2.50;;;;;;;;;;5070210;28;20012;-65
2022/06/08 04:33:11;;;;;;;3.70;1.92;;;;;;;;;;5070576;28;20021;-65
2022/06/08 04:35:36;;;;;;;5.10;2.47;;;;;;;;;;5070795;28;20016;-68
2022/06/08 04:38:01;;;;;;;4.10;2.22;;;;;;;;;;5071812;28;20024;-67
2022/06/08 04:40:27;;;;;;;7.85;2.08;;;;;;;;;;5069969;28;20020;-65
2022/06/08 04:42:52;;;;;;;2.80;1.70;;;;;;;;;;5062461;28;20020;-65
2022/06/08 04:45:18;;;;;;;7.05;2.33;;;;;;;;;;5057411;28;20031;-65
2022/06/08 04:47:43;;;;;;;4.82;2.10;;;;;;;;;;5057753;28;20027;-64
2022/06/08 04:50:09;;;;;;;4.37;1.93;;;;;;;;;;5067762;28;20025;-65
2022/06/08 04:52:34;;;;;;;4.10;2.15;;;;;;;;;;5064506;28;20767;-66
2022/06/08 04:55:00;;;;;;;8.43;2.38;;;;;;;;;;5065708;28;20100;-65
2022/06/08 04:57:25;;;;;;;4.47;1.50;;;;;;;;;;5065337;28;20026;-66
2022/06/08 04:59:50;;;;;;;3.30;2.25;;;;;;;;;;5069490;28;20669;-65
2022/06/08 05:02:42;;;;;;;3.30;1.83;;;;;;;;;;5070778;28;20458;-65
2022/06/08 05:05:01;;;;;;;2.95;1.83;;;;;;;;;;5066373;28;20475;-65
2022/06/08 05:07:26;;;;;;;3.90;2.00;;;;;;;;;;5069847;28;20024;-65
2022/06/08 05:09:51;;;;;;;2.77;1.80;;;;;;;;;;5066321;28;20331;-67
2022/06/08 05:12:16;;;;;;;3.00;1.67;;;;;;;;;;5065021;28;20275;-66
2022/06/08 05:14:42;;;;;;;3.10;1.80;;;;;;;;;;5066412;28;20321;-67
2022/06/08 05:17:07;;;;;;;2.38;1.70;;;;;;;;;;5055472;28;20286;-67
2022/06/08 05:19:32;;;;;;;5.00;1.37;;;;;;;;;;5067552;28;20040;-66
2022/06/08 05:21:57;;;;;;;1.85;1.35;;;;;;;;;;5063181;28;20274;-66
2022/06/08 05:24:22;;;;;;;5.43;1.38;;;;;;;;;;5061178;28;20021;-67
2022/06/08 05:26:48;;;;;;;2.60;1.80;;;;;;;;;;5054627;28;21434;-67
2022/06/08 05:29:13;;;;;;;4.53;1.45;;;;;;;;;;5057623;28;20277;-67
2022/06/08 05:31:38;;;;;;;7.50;1.60;;;;;;;;;;5061658;28;20025;-67
2022/06/08 05:34:03;;;;;;;2.50;1.50;;;;;;;;;;5052724;28;20271;-67
2022/06/08 05:36:28;;;;;;;3.63;1.90;;;;;;;;;;5056457;28;20364;-67
2022/06/08 05:38:54;;;;;;;3.67;1.40;;;;;;;;;;5058834;28;20099;-66
2022/06/08 05:41:20;;;;;;;5.20;1.77;;;;;;;;;;5064100;28;20611;-66
2022/06/08 05:43:46;;;;;;;4.75;1.60;;;;;;;;;;5061242;28;20145;-66
2022/06/08 05:46:11;;;;;;;2.95;1.30;;;;;;;;;;5059401;28;20056;-67
2022/06/08 05:48:36;;;;;;;3.17;1.03;;;;;;;;;;5052328;28;20428;-67
2022/06/08 05:51:01;;;;;;;1.80;1.30;;;;;;;;;;5060754;28;20267;-67
2022/06/08 05:53:26;;;;;;;1.63;1.17;;;;;;;;;;5068095;28;20259;-66
2022/06/08 05:55:51;;;;;;;1.87;0.93;;;;;;;;;;5064194;28;20032;-66
2022/06/08 05:58:17;;;;;;;2.10;1.40;;;;;;;;;;5038424;28;20267;-67
2022/06/08 06:00:42;;;;;;;2.67;1.37;;;;;;;;;;5058369;28;20767;-67
2022/06/08 06:03:08;;;;;;;6.13;1.13;;;;;;;;;;5063520;28;20267;-67
2022/06/08 06:05:33;;;;;;;2.17;1.33;;;;;;;;;;5059593;28;20037;-67
2022/06/08 06:07:59;;;;;;;9.63;1.30;;;;;;;;;;5059756;28;20067;-67
2022/06/08 06:10:26;;;;;;;1.80;1.00;;;;;;;;;;5060125;28;20124;-67
2022/06/08 06:12:54;;;;;;;2.83;1.40;;;;;;;;;;5066016;28;20100;-67
2022/06/08 06:15:20;;;;;;;1.58;1.13;;;;;;;;;;5061207;28;20052;-68
2022/06/08 06:17:45;;;;;;;6.75;1.45;;;;;;;;;;5062815;28;20658;-67
2022/06/08 06:20:11;;;;;;;3.70;1.40;;;;;;;;;;5058515;28;20100;-67
2022/06/08 06:22:37;;;;;;;1.63;1.20;;;;;;;;;;5061818;28;20784;-67
2022/06/08 06:25:03;;;;;;;2.20;1.20;;;;;;;;;;5060960;28;20097;-67
2022/06/08 06:27:29;;;;;;;5.55;1.17;;;;;;;;;;5062613;28;20027;-67
2022/06/08 06:29:54;;;;;;;0.90;0.70;;;;;;;;;;5056237;28;20024;-67
2022/06/08 06:32:24;;;;;;;2.78;1.45;;;;;;;;;;5063135;28;20012;-67
2022/06/08 06:34:49;;;;;;;1.65;0.68;;;;;;;;;;5058639;28;20627;-67
2022/06/08 06:37:14;;;;;;;1.98;1.00;;;;;;;;;;5052482;28;20067;-67
2022/06/08 06:39:40;;;;;;;1.87;0.80;;;;;;;;;;5061163;28;20025;-67
2022/06/08 06:42:05;;;;;;;4.43;1.13;;;;;;;;;;5062570;28;20305;-67
2022/06/08 06:44:30;;;;;;;0.80;0.60;;;;;;;;;;5083591;22;20708;-70
2022/06/08 06:46:56;;;;;;;2.10;1.23;;;;;;;;;;5067674;28;20024;-69
2022/06/08 06:49:22;;;;;;;1.13;0.57;;;;;;;;;;5070025;28;20263;-69
2022/06/08 06:51:48;;;;;;;5.13;1.35;;;;;;;;;;5071436;28;20020;-69
2022/06/08 06:54:13;;;;;;;3.47;0.73;;;;;;;;;;5068030;28;20487;-69
2022/06/08 06:56:38;;;;;;;1.80;0.90;;;;;;;;;;5065988;28;20460;-69
2022/06/08 06:59:04;;;;;;;1.00;0.90;;;;;;;;;;5070157;28;20293;-69
2022/06/08 07:01:29;;;;;;;5.50;1.00;;;;;;;;;;5070076;28;20310;-69
2022/06/08 07:03:54;;;;;;;2.58;1.05;;;;;;;;;;5071384;28;20031;-69
2022/06/08 07:06:19;;;;;;;4.50;1.03;;;;;;;;;;5068471;28;20033;-69
2022/06/08 07:08:44;;;;;;;2.13;1.10;;;;;;;;;;5070543;28;20258;-69
2022/06/08 07:13:55;;;;;;;0.57;0.50;;;;;;;;;;5070876;28;20039;-69
2022/06/08 07:16:21;;;;;;;5.65;0.88;;;;;;;;;;5067720;28;20016;-69
2022/06/08 07:18:46;;;;;;;2.28;0.85;;;;;;;;;;5073067;28;20094;-69
2022/06/08 07:21:11;;;;;;;1.30;0.52;;;;;;;;;;5070225;28;20032;-69
2022/06/08 07:23:37;;;;;;;5.85;1.10;;;;;;;;;;5067460;28;20023;-69
2022/06/08 07:26:02;;;;;;;1.58;0.80;;;;;;;;;;5075167;28;20474;-69
2022/06/08 07:28:28;;;;;;;1.13;0.77;;;;;;;;;;5072068;28;20017;-69
2022/06/08 07:30:53;;;;;;;1.17;0.55;;;;;;;;;;5070046;28;20020;-70
2022/06/08 07:33:19;;;;;;;8.27;1.00;;;;;;;;;;5071143;28;20074;-69
2022/06/08 07:35:45;;;;;;;1.27;0.75;;;;;;;;;;5053464;28;20024;-69
2022/06/08 07:38:10;;;;;;;8.40;1.20;;;;;;;;;;5071850;28;20029;-69
2022/06/08 07:40:36;;;;;;;6.97;1.00;;;;;;;;;;5070064;28;20078;-69
2022/06/08 07:43:01;;;;;;;3.28;1.08;;;;;;;;;;5071546;28;20024;-69
2022/06/08 07:45:26;;;;;;;3.30;1.07;;;;;;;;;;5068667;28;20028;-69
2022/06/08 07:50:35;;;;;;;3.08;0.90;;;;;;;;;;5068010;28;20290;-69
2022/06/08 07:53:00;;;;;;;6.03;1.17;;;;;;;;;;5072468;28;20024;-69
2022/06/08 07:55:26;;;;;;;5.25;1.38;;;;;;;;;;5071553;28;20830;-69
2022/06/08 07:57:51;;;;;;;1.40;1.02;;;;;;;;;;5070856;28;20020;-69
2022/06/08 08:00:17;;;;;;;1.10;0.63;;;;;;;;;;5069919;28;20021;-69
2022/06/08 08:02:43;;;;;;;3.38;1.25;;;;;;;;;;5070705;28;20074;-69
2022/06/08 08:05:09;;;;;;;1.50;0.77;;;;;;;;;;5069831;28;20388;-70
2022/06/08 08:07:35;;;;;;;4.10;1.42;;;;;;;;;;5072086;28;20016;-69
2022/06/08 08:10:00;;;;;;;5.30;0.85;;;;;;;;;;5067416;28;20377;-69
2022/06/08 08:12:25;;;;;;;1.90;0.87;;;;;;;;;;5068355;28;20377;-70
2022/06/08 08:14:51;;;;;;;2.10;1.10;;;;;;;;;;5071722;28;20270;-70
2022/06/08 08:17:16;;;;;;;4.60;1.50;;;;;;;;;;5067215;28;20396;-69
2022/06/08 08:19:41;;;;;;;1.03;0.90;;;;;;;;;;5075971;28;20286;-69
2022/06/08 08:22:07;;;;;;;3.75;1.25;;;;;;;;;;5073506;28;20413;-69
2022/06/08 08:24:32;;;;;;;1.25;0.85;;;;;;;;;;5074517;28;20097;-69
2022/06/08 08:26:58;;;;;;;2.95;0.98;;;;;;;;;;5049781;28;20107;-69
2022/06/08 08:29:23;;;;;;;2.95;1.00;;;;;;;;;;5070145;28;20528;-69
2022/06/08 08:31:49;;;;;;;5.47;1.20;;;;;;;;;;5068535;28;20027;-69
2022/06/08 08:34:15;;;;;;;18.13;1.02;;;;;;;;;;5073740;28;20044;-69
2022/06/08 08:36:40;;;;;;;6.40;0.90;;;;;;;;;;5068118;28;20048;-69
2022/06/08 08:39:05;;;;;;;2.30;1.15;;;;;;;;;;5071214;28;20037;-69
2022/06/08 08:44:34;;;;;;;5.57;1.23;;;;;;;;;;5073651;28;20031;-69
2022/06/08 08:47:09;;;;;;;5.78;1.00;;;;;;;;;;5068270;28;20490;-69
2022/06/08 08:49:35;;;;;;;4.45;1.25;;;;;;;;;;5058286;28;20028;-69
2022/06/08 08:52:02;;;;;;;2.28;1.15;;;;;;;;;;5035852;28;20016;-69
2022/06/08 08:54:30;;;;;;;5.90;1.17;;;;;;;;;;5054125;28;20032;-69
2022/06/08 08:57:04;;;;;;;8.07;2.50;;;;;;;;;;5056083;28;20040;-70
2022/06/08 08:59:32;;;;;;;6.57;1.25;;;;;;;;;;5066266;28;20063;-69
2022/06/08 09:01:58;;;;;;;2.45;0.90;;;;;;;;;;5074358;28;20025;-69
2022/06/08 09:04:26;;;;;;;5.10;1.45;;;;;;;;;;5067567;28;20385;-69
2022/06/08 09:06:51;;;;;;;3.50;0.70;;;;;;;;;;5069052;28;20017;-69
2022/06/08 09:09:19;;;;;;;2.50;0.80;;;;;;;;;;5070185;28;20070;-70
2022/06/08 09:11:44;;;;;;;5.97;1.65;;;;;;;;;;5066929;28;20289;-70
2022/06/08 09:14:15;;;;;;;9.85;1.50;;;;;;;;;;5065527;28;20420;-69
2022/06/08 09:16:45;;;;;;;5.10;1.15;;;;;;;;;;5070826;28;20020;-70
2022/06/08 09:19:32;;;;;;;3.67;1.10;;;;;;;;;;5068661;28;20362;-69
2022/06/08 09:22:03;;;;;;;10.77;1.45;;;;;;;;;;5066500;28;20112;-69
2022/06/08 09:24:31;;;;;;;10.50;2.50;;;;;;;;;;5069137;28;20016;-69
2022/06/08 09:26:57;;;;;;;3.17;0.98;;;;;;;;;;5067819;28;20415;-70
2022/06/08 09:29:26;;;;;;;4.15;0.50;;;;;;;;;;5066346;28;20666;-70
2022/06/08 09:31:52;;;;;;;1.42;0.50;;;;;;;;;;5066075;28;20062;-70
2022/06/08 09:34:38;;;;;;;1.95;0.75;;;;;;;;;;5065499;28;20024;-69
2022/06/08 09:37:06;;;;;;;5.18;1.60;;;;;;;;;;5067619;28;20025;-69
2022/06/08 09:39:32;;;;;;;1.35;0.70;;;;;;;;;;5067337;28;20020;-69
2022/06/08 09:41:59;;;;;;;7.05;1.75;;;;;;;;;;5062155;28;20058;-69
2022/06/08 09:44:26;;;;;;;7.97;1.55;;;;;;;;;;5068237;28;20028;-69
2022/06/08 09:52:49;;;;;;;3.90;1.30;;;;;;;;;;5065655;28;20097;-69
2022/06/08 09:55:33;;;;;;;2.15;0.57;;;;;;;;;;5065732;28;20043;-69
2022/06/08 09:58:24;;;;;;;3.90;1.20;;;;;;;;;;5066123;28;20083;-70
2022/06/08 10:01:04;;;;;;;2.28;1.08;;;;;;;;;;5067047;28;20480;-69
2022/06/08 10:03:48;;;;;;;8.98;1.30;;;;;;;;;;5063822;28;20032;-69
2022/06/08 10:06:16;;;;;;;6.20;1.10;;;;;;;;;;5067964;28;20561;-69
2022/06/08 10:08:53;;;;;;;8.10;1.27;;;;;;;;;;5066658;28;20024;-69
2022/06/08 10:11:34;;;;;;;4.82;1.38;;;;;;;;;;5067544;28;20009;-69
2022/06/08 10:14:12;;;;;;;9.27;1.58;;;;;;;;;;5067905;28;20021;-69
2022/06/08 10:16:39;;;;;;;4.90;1.20;;;;;;;;;;5068056;28;20020;-69
2022/06/08 10:19:08;;;;;;;10.32;1.48;;;;;;;;;;5069698;28;20024;-69
2022/06/08 10:21:37;;;;;;;5.70;1.45;;;;;;;;;;5068001;28;20055;-70
2022/06/08 10:24:02;;;;;;;10.63;1.77;;;;;;;;;;5070295;28;20024;-70
2022/06/08 10:26:30;;;;;;;5.73;1.30;;;;;;;;;;5067213;28;20020;-70
2022/06/08 10:29:08;;;;;;;7.38;1.48;;;;;;;;;;5071419;28;20266;-70
2022/06/08 10:31:52;;;;;;;6.68;1.77;;;;;;;;;;5068954;28;20023;-70
2022/06/08 10:34:25;;;;;;;13.05;2.70;;;;;;;;;;5073480;28;20052;-70
2022/06/08 10:36:52;;;;;;;8.10;1.42;;;;;;;;;;5068610;28;20091;-69
2022/06/08 10:39:18;;;;;;;8.35;1.02;;;;;;;;;;5066580;28;20024;-70
2022/06/08 10:44:49;;;;;;;8.90;1.40;;;;;;;;;;5070028;28;20384;-70
2022/06/08 10:47:16;;;;;;;6.25;2.17;;;;;;;;;;5067371;28;20492;-70
2022/06/08 10:49:45;;;;;;;6.82;1.40;;;;;;;;;;5067940;28;20032;-70
2022/06/08 10:52:19;;;;;;;8.27;1.55;;;;;;;;;;5069543;28;20103;-70
2022/06/08 10:54:55;;;;;;;7.03;1.52;;;;;;;;;;5049740;28;20020;-70
2022/06/08 10:57:44;;;;;;;9.48;1.52;;;;;;;;;;5067256;28;20028;-70
2022/06/08 11:00:18;;;;;;;9.48;1.92;;;;;;;;;;5055563;28;20395;-70
2022/06/08 11:03:04;;;;;;;15.57;1.92;;;;;;;;;;5067773;28;20500;-70
2022/06/08 11:05:43;;;;;;;12.10;2.45;;;;;;;;;;5063504;28;20040;-70
2022/06/08 11:08:12;;;;;;;10.18;1.90;;;;;;;;;;5068263;28;20035;-70
2022/06/08 11:10:44;;;;;;;8.77;3.08;;;;;;;;;;5076939;28;20570;-70
2022/06/08 11:13:32;;;;;;;7.90;2.00;;;;;;;;;;5072477;28;20024;-70
2022/06/08 11:16:06;;;;;;;9.68;1.80;;;;;;;;;;5063366;28;20021;-70
2022/06/08 11:18:31;;;;;;;5.53;1.38;;;;;;;;;;5076244;28;20020;-70
2022/06/08 11:21:19;;;;;;;5.27;1.37;;;;;;;;;;5076467;28;20023;-70
2022/06/08 11:24:04;;;;;;;5.22;1.35;;;;;;;;;;5063327;28;20278;-70
2022/06/08 11:26:36;;;;;;;8.30;1.55;;;;;;;;;;5047135;28;20039;-70
2022/06/08 11:29:16;;;;;;;8.65;1.85;;;;;;;;;;5073158;28;20020;-70
2022/06/08 11:31:41;;;;;;;11.57;1.48;;;;;;;;;;5072719;28;20021;-70
2022/06/08 11:34:06;;;;;;;7.60;1.87;;;;;;;;;;5079543;28;20033;-70
2022/06/08 11:36:41;;;;;;;5.27;1.50;;;;;;;;;;5073352;28;20773;-70
2022/06/08 11:39:21;;;;;;;8.48;1.30;;;;;;;;;;5074172;28;20062;-70
2022/06/08 11:42:05;;;;;;;6.80;1.58;;;;;;;;;;5061937;28;20497;-70
2022/06/08 11:44:33;;;;;;;6.13;1.38;;;;;;;;;;5071550;28;20039;-70
2022/06/08 11:47:12;;;;;;;7.13;1.65;;;;;;;;;;5074952;28;20055;-70
2022/06/08 11:49:38;;;;;;;4.85;1.25;;;;;;;;;;5075064;28;20166;-70
2022/06/08 11:52:23;;;;;;;9.65;3.40;;;;;;;;;;5074550;28;20024;-69
2022/06/08 11:54:58;;;;;;;8.07;1.90;;;;;;;;;;5073703;28;20012;-70
2022/06/08 11:57:23;;;;;;;5.40;2.33;;;;;;;;;;5069173;28;20021;-69
2022/06/08 11:59:50;;;;;;;6.37;1.37;;;;;;;;;;5073039;28;20385;-70
2022/06/08 12:02:18;;;;;;;7.05;2.13;;;;;;;;;;5078341;28;20028;-70
2022/06/08 12:04:44;;;;;;;5.00;1.30;;;;;;;;;;5054651;28;20096;-70
2022/06/08 12:07:27;;;;;;;8.38;2.30;;;;;;;;;;5079953;28;20123;-70
2022/06/08 12:09:53;;;;;;;5.03;1.60;;;;;;;;;;5073658;28;20104;-70
2022/06/08 12:12:20;;;;;;;11.90;2.25;;;;;;;;;;5073005;28;20464;-70
2022/06/08 12:14:45;;;;;;;9.23;1.92;;;;;;;;;;5072398;28;20094;-70
2022/06/08 12:17:10;;;;;;;7.05;1.70;;;;;;;;;;5071847;28;20028;-70
2022/06/08 12:19:53;;;;;;;6.53;1.60;;;;;;;;;;5076762;28;20013;-70
2022/06/08 12:22:32;;;;;;;9.05;1.50;;;;;;;;;;5072966;28;20028;-70
2022/06/08 12:25:09;;;;;;;12.20;2.22;;;;;;;;;;5071332;28;20024;-70
2022/06/08 12:27:53;;;;;;;8.90;1.95;;;;;;;;;;5069200;28;20036;-71
2022/06/08 12:30:21;;;;;;;6.43;2.13;;;;;;;;;;5066397;28;20489;-70
2022/06/08 12:32:56;;;;;;;8.10;2.13;;;;;;;;;;5071209;28;20126;-70
2022/06/08 12:35:34;;;;;;;12.82;2.22;;;;;;;;;;5068913;28;20025;-71
2022/06/08 12:38:02;;;;;;;10.10;2.53;;;;;;;;;;5067432;28;20389;-69
2022/06/08 12:40:29;;;;;;;9.55;2.00;;;;;;;;;;5069865;28;20025;-69
2022/06/08 12:42:54;;;;;;;8.32;2.30;;;;;;;;;;5069584;28;20024;-71
2022/06/08 12:45:27;;;;;;;10.13;1.90;;;;;;;;;;5069276;28;20032;-71
2022/06/08 12:47:52;;;;;;;5.45;1.85;;;;;;;;;;5068227;28;20028;-70
2022/06/08 12:50:23;;;;;;;13.77;2.00;;;;;;;;;;5069769;28;20024;-70
2022/06/08 12:52:48;;;;;;;6.18;2.00;;;;;;;;;;5068806;28;20103;-71
2022/06/08 12:55:16;;;;;;;6.60;2.60;;;;;;;;;;5068290;28;20092;-70
2022/06/08 12:57:44;;;;;;;6.85;1.55;;;;;;;;;;5069600;28;20016;-71
2022/06/08 13:00:21;;;;;;;6.15;1.98;;;;;;;;;;5070756;28;20021;-70
2022/06/08 13:02:46;;;;;;;10.52;2.58;;;;;;;;;;5070206;28;20028;-71
2022/06/08 13:05:18;;;;;;;9.73;2.28;;;;;;;;;;5074384;28;20024;-71
2022/06/08 13:07:43;;;;;;;7.55;2.30;;;;;;;;;;5068848;28;20169;-71
2022/06/08 13:10:09;;;;;;;6.82;2.05;;;;;;;;;;5073588;28;20103;-71
2022/06/08 13:12:37;;;;;;;7.50;2.47;;;;;;;;;;5068632;28;20021;-71
2022/06/08 13:15:03;;;;;;;9.07;2.40;;;;;;;;;;5068770;28;20017;-72
2022/06/08 13:17:29;;;;;;;8.00;2.65;;;;;;;;;;5068736;28;20043;-72
2022/06/08 13:19:56;;;;;;;6.97;1.88;;;;;;;;;;5054934;28;20012;-72
2022/06/08 13:22:24;;;;;;;9.20;1.50;;;;;;;;;;5069513;28;20384;-72
2022/06/08 13:24:50;;;;;;;7.35;1.98;;;;;;;;;;5071043;28;20025;-72
2022/06/08 13:27:15;;;;;;;9.27;1.33;;;;;;;;;;5067685;28;20377;-72
2022/06/08 13:29:41;;;;;;;8.30;1.70;;;;;;;;;;5067133;28;20270;-72
2022/06/08 13:32:14;;;;;;;4.13;1.92;;;;;;;;;;5066999;28;20103;-72
2022/06/08 13:34:39;;;;;;;4.28;1.33;;;;;;;;;;5069727;28;20016;-72
2022/06/08 13:37:04;;;;;;;8.13;2.20;;;;;;;;;;5054028;28;20429;-73
2022/06/08 13:39:32;;;;;;;9.15;2.65;;;;;;;;;;5071900;28;20266;-72
2022/06/08 13:42:03;;;;;;;5.38;2.05;;;;;;;;;;5066282;28;20024;-72
2022/06/08 13:44:32;;;;;;;4.88;1.55;;;;;;;;;;5072877;28;20044;-72
2022/06/08 13:47:00;;;;;;;3.13;0.75;;;;;;;;;;5064699;28;20103;-71
2022/06/08 13:49:27;;;;;;;6.63;2.22;;;;;;;;;;5071234;28;20020;-72
2022/06/08 13:51:53;;;;;;;6.57;1.95;;;;;;;;;;5067845;28;20024;-72
2022/06/08 13:54:26;;;;;;;5.65;1.48;;;;;;;;;;5067243;28;20389;-72
2022/06/08 13:56:52;;;;;;;8.93;1.73;;;;;;;;;;5068795;28;20392;-72
2022/06/08 13:59:18;;;;;;;9.82;2.00;;;;;;;;;;5070192;28;20023;-72
2022/06/08 14:01:46;;;;;;;4.75;1.45;;;;;;;;;;5070757;28;20012;-72
2022/06/08 14:04:14;;;;;;;7.55;1.95;;;;;;;;;;5066436;28;20028;-71
2022/06/08 14:14:51;;;;;;;9.23;2.15;;;;;;;;;;5071229;28;20031;-71
2022/06/08 14:17:17;;;;;;;5.03;2.05;;;;;;;;;;5070043;28;20016;-71
2022/06/08 14:19:46;;;;;;;5.65;2.17;;;;;;;;;;5069039;28;20024;-71
2022/06/08 14:22:14;;;;;;;5.22;2.20;;;;;;;;;;5066580;28;20023;-69
2022/06/08 14:24:41;;;;;;;13.85;2.45;;;;;;;;;;5069831;28;20021;-69
2022/06/08 14:27:07;;;;;;;6.93;2.92;;;;;;;;;;5068865;28;20077;-69
2022/06/08 14:29:33;;;;;;;7.07;2.30;;;;;;;;;;5069630;28;20019;-69
2022/06/08 14:32:00;;;;;;;10.30;2.40;;;;;;;;;;5068160;28;20525;-69
2022/06/08 14:34:28;;;;;;;12.85;3.13;;;;;;;;;;5066293;28;20064;-70
2022/06/08 14:36:54;;;;;;;13.63;3.35;;;;;;;;;;5069848;28;20065;-70
2022/06/08 14:39:21;;;;;;;5.43;2.17;;;;;;;;;;5068058;28;20025;-70
2022/06/08 14:41:46;;;;;;;6.28;2.30;;;;;;;;;;5070333;28;20021;-70
2022/06/08 14:44:12;;;;;;;6.85;2.83;;;;;;;;;;5068993;28;20028;-70
2022/06/08 14:46:42;;;;;;;5.70;1.90;;;;;;;;;;5048475;28;20386;-70
2022/06/08 14:49:10;;;;;;;6.00;2.10;;;;;;;;;;5071519;28;20024;-70
2022/06/08 14:51:35;;;;;;;7.65;2.30;;;;;;;;;;5068484;28;20039;-70
2022/06/08 14:54:01;;;;;;;9.30;2.80;;;;;;;;;;5069285;28;20475;-70
2022/06/08 14:56:26;;;;;;;9.37;2.50;;;;;;;;;;5068199;28;20295;-70
2022/06/08 14:58:56;;;;;;;7.95;2.38;;;;;;;;;;5065523;28;20289;-70
2022/06/08 15:01:23;;;;;;;6.13;2.80;;;;;;;;;;5068073;28;20016;-70
2022/06/08 15:03:48;;;;;;;16.45;3.03;;;;;;;;;;5068699;28;20791;-70
2022/06/08 15:06:14;;;;;;;9.35;2.65;;;;;;;;;;5069224;28;20103;-70
2022/06/08 15:08:40;;;;;;;8.75;2.83;;;;;;;;;;5068989;28;20459;-70
2022/06/08 15:13:52;;;;;;;9.27;3.15;;;;;;;;;;5067656;28;20027;-70
2022/06/08 15:16:17;;;;;;;10.23;3.67;;;;;;;;;;5067338;28;20399;-71
2022/06/08 15:18:43;;;;;;;12.97;3.57;;;;;;;;;;5068398;28;20286;-71
2022/06/08 15:21:08;;;;;;;11.82;2.90;;;;;;;;;;5066101;28;20285;-71